createdAt,value
2022-12-03T00:00:01.475Z,8.56
2022-12-03T00:15:02.143Z,8.63
2022-12-03T00:30:01.812Z,8.47
2022-12-03T00:45:01.458Z,8.57
2022-12-03T01:00:02.118Z,8.41
2022-12-03T01:15:01.742Z,8.37
2022-12-03T01:30:01.401Z,8.39
2022-12-03T01:45:02.031Z,8.23
2022-12-03T02:00:01.658Z,8.29
2022-12-03T02:15:01.313Z,8.35
2022-12-03T02:30:01.944Z,8.14
2022-12-03T02:45:05.164Z,8.08
2022-12-03T03:00:01.318Z,7.98
2022-12-03T03:15:01.959Z,8.12
2022-12-03T03:30:01.636Z,8.05
2022-12-03T03:45:01.268Z,8.12
2022-12-03T04:00:01.893Z,8.31
2022-12-03T04:15:01.746Z,8.04
2022-12-03T04:30:01.510Z,8
2022-12-03T04:45:02.124Z,7.87
2022-12-03T05:00:01.798Z,7.81
2022-12-03T05:15:02.459Z,7.52
2022-12-03T05:30:02.374Z,7.43
2022-12-03T05:45:02.018Z,7.46
2022-12-03T06:00:01.664Z,7.57
2022-12-03T06:15:02.317Z,7.56
2022-12-03T06:30:01.980Z,7.62
2022-12-03T06:45:01.734Z,7.89
2022-12-03T07:00:01.420Z,7.93
2022-12-03T07:15:02.094Z,7.74
2022-12-03T07:30:01.772Z,7.71
2022-12-03T07:45:01.432Z,7.69
2022-12-03T08:00:02.043Z,7.67
2022-12-03T08:15:01.664Z,7.75
2022-12-03T08:30:01.336Z,7.8
2022-12-03T08:45:02.007Z,8.01
2022-12-03T09:00:01.611Z,8.06
2022-12-03T09:15:01.235Z,8.01
2022-12-03T09:30:01.910Z,7.79
2022-12-03T09:45:01.553Z,7.76
2022-12-03T10:00:02.158Z,7.47
2022-12-03T10:15:01.781Z,7.89
2022-12-03T10:30:01.424Z,7.94
2022-12-03T14:00:01.114Z,7.36
2022-12-03T14:15:01.748Z,7.64
2022-12-03T14:30:01.407Z,7.74
2022-12-03T14:45:01.039Z,7.76
2022-12-03T15:00:01.644Z,7.59
2022-12-03T15:15:01.292Z,7.61
2022-12-03T15:30:00.967Z,7.39
2022-12-03T15:45:01.622Z,7.3
2022-12-03T16:00:01.226Z,7.29
2022-12-03T16:15:02.060Z,7.32
2022-12-03T16:30:01.883Z,7.66
2022-12-03T16:45:01.584Z,8.21
2022-12-03T17:00:01.328Z,8.25
2022-12-03T17:15:01.031Z,8.07
2022-12-03T17:30:01.680Z,7.98
2022-12-03T17:45:01.305Z,7.94
2022-12-03T18:00:00.932Z,8.17
2022-12-03T18:15:01.629Z,8.24
2022-12-03T18:30:01.338Z,8.19
2022-12-03T18:45:00.997Z,8.23
2022-12-03T19:00:01.647Z,7.98
2022-12-03T19:15:01.296Z,7.95
2022-12-03T19:30:00.934Z,8.06
2022-12-03T19:45:01.605Z,8.04
2022-12-03T20:00:01.272Z,7.91
2022-12-03T20:15:01.159Z,7.85
2022-12-03T20:30:02.279Z,7.87
2022-12-03T20:45:02.286Z,7.95
2022-12-03T21:00:01.915Z,7.97
2022-12-03T21:15:02.579Z,7.99
2022-12-03T21:30:02.234Z,8.3
2022-12-03T21:45:01.888Z,8.27
2022-12-03T22:00:02.547Z,8.06
2022-12-03T22:15:02.225Z,8.05
2022-12-03T22:30:01.925Z,8.02
2022-12-03T22:45:02.583Z,7.98
2022-12-03T23:00:02.227Z,8.19
2022-12-03T23:15:01.868Z,8.1
2022-12-03T23:30:02.492Z,8.31
2022-12-03T23:45:02.117Z,8.36
